sensor_id;sensor_type;location;lat;lon;timestamp;pressure;altitude;pressure_sealevel;temperature;humidity
23321;BME280;33376;51.306;4.752;2022-08-11T00:00:03;102595.47;;;19.24;100.00
23321;BME280;33376;51.306;4.752;2022-08-11T00:04:56;102589.59;;;19.17;100.00
23321;BME280;33376;51.306;4.752;2022-08-11T00:07:25;102589.31;;;19.22;100.00
23321;BME280;33376;51.306;4.752;2022-08-11T00:09:51;102587.59;;;19.21;100.00
23321;BME280;33376;51.306;4.752;2022-08-11T00:12:17;102591.06;;;19.23;100.00
23321;BME280;33376;51.306;4.752;2022-08-11T00:14:42;102587.00;;;19.16;100.00
23321;BME280;33376;51.306;4.752;2022-08-11T00:17:10;102575.47;;;19.28;100.00
23321;BME280;33376;51.306;4.752;2022-08-11T00:19:41;102582.13;;;19.22;100.00
23321;BME280;33376;51.306;4.752;2022-08-11T00:22:08;102589.31;;;19.22;100.00
23321;BME280;33376;51.306;4.752;2022-08-11T00:24:36;102582.31;;;19.19;100.00
23321;BME280;33376;51.306;4.752;2022-08-11T00:27:02;102584.31;;;19.16;100.00
23321;BME280;33376;51.306;4.752;2022-08-11T00:29:27;102588.91;;;19.14;100.00
23321;BME280;33376;51.306;4.752;2022-08-11T00:31:54;102598.50;;;19.04;100.00
23321;BME280;33376;51.306;4.752;2022-08-11T00:34:24;102599.88;;;18.97;100.00
23321;BME280;33376;51.306;4.752;2022-08-11T00:36:59;102605.16;;;18.98;100.00
23321;BME280;33376;51.306;4.752;2022-08-11T00:39:25;102610.03;;;18.91;100.00
23321;BME280;33376;51.306;4.752;2022-08-11T00:52:16;102621.66;;;18.78;100.00
23321;BME280;33376;51.306;4.752;2022-08-11T01:10:44;102628.66;;;18.51;100.00
23321;BME280;33376;51.306;4.752;2022-08-11T01:15:57;102634.13;;;18.34;100.00
23321;BME280;33376;51.306;4.752;2022-08-11T01:34:19;102640.31;;;18.05;100.00
23321;BME280;33376;51.306;4.752;2022-08-11T01:48:04;102664.66;;;17.86;100.00
23321;BME280;33376;51.306;4.752;2022-08-11T01:55:31;102670.38;;;17.80;100.00
23321;BME280;33376;51.306;4.752;2022-08-11T02:00:27;102670.72;;;17.74;100.00
23321;BME280;33376;51.306;4.752;2022-08-11T02:03:00;102682.38;;;17.73;100.00
23321;BME280;33376;51.306;4.752;2022-08-11T02:08:36;102678.72;;;17.59;100.00
23321;BME280;33376;51.306;4.752;2022-08-11T02:11:26;102679.78;;;17.56;100.00
23321;BME280;33376;51.306;4.752;2022-08-11T02:14:06;102691.00;;;17.47;100.00
23321;BME280;33376;51.306;4.752;2022-08-11T02:22:02;102699.94;;;17.13;100.00
23321;BME280;33376;51.306;4.752;2022-08-11T02:25:33;102706.72;;;17.03;100.00
23321;BME280;33376;51.306;4.752;2022-08-11T02:27:43;102705.94;;;17.01;100.00
23321;BME280;33376;51.306;4.752;2022-08-11T02:30:16;102699.72;;;17.01;100.00
23321;BME280;33376;51.306;4.752;2022-08-11T02:40:40;102689.13;;;16.98;100.00
23321;BME280;33376;51.306;4.752;2022-08-11T02:43:16;102699.41;;;17.07;100.00
23321;BME280;33376;51.306;4.752;2022-08-11T02:53:46;102695.13;;;17.03;100.00
23321;BME280;33376;51.306;4.752;2022-08-11T02:59:00;102694.56;;;16.96;100.00
23321;BME280;33376;51.306;4.752;2022-08-11T03:04:20;102697.25;;;16.96;100.00
23321;BME280;33376;51.306;4.752;2022-08-11T03:06:48;102696.31;;;17.14;100.00
23321;BME280;33376;51.306;4.752;2022-08-11T03:09:25;102694.13;;;17.05;100.00
23321;BME280;33376;51.306;4.752;2022-08-11T03:12:00;102697.25;;;16.96;100.00
23321;BME280;33376;51.306;4.752;2022-08-11T03:14:47;102703.91;;;16.89;100.00
23321;BME280;33376;51.306;4.752;2022-08-11T03:17:42;102704.66;;;16.91;100.00
23321;BME280;33376;51.306;4.752;2022-08-11T03:33:28;102713.81;;;16.70;100.00
23321;BME280;33376;51.306;4.752;2022-08-11T03:39:03;102704.03;;;16.69;100.00
23321;BME280;33376;51.306;4.752;2022-08-11T03:41:43;102709.78;;;16.62;100.00
23321;BME280;33376;51.306;4.752;2022-08-11T03:47:24;102716.53;;;16.52;100.00
23321;BME280;33376;51.306;4.752;2022-08-11T03:49:33;102713.22;;;16.47;100.00
23321;BME280;33376;51.306;4.752;2022-08-11T03:57:53;102723.72;;;16.51;100.00
23321;BME280;33376;51.306;4.752;2022-08-11T04:00:37;102722.84;;;16.51;100.00
23321;BME280;33376;51.306;4.752;2022-08-11T04:16:41;102725.66;;;16.29;100.00
23321;BME280;33376;51.306;4.752;2022-08-11T04:30:10;102725.22;;;16.20;100.00
23321;BME280;33376;51.306;4.752;2022-08-11T04:35:30;102719.59;;;16.26;100.00
23321;BME280;33376;51.306;4.752;2022-08-11T04:48:23;102731.09;;;16.28;100.00
23321;BME280;33376;51.306;4.752;2022-08-11T05:00:29;102731.91;;;16.48;100.00
23321;BME280;33376;51.306;4.752;2022-08-11T05:03:30;102737.72;;;16.56;100.00
23321;BME280;33376;51.306;4.752;2022-08-11T05:13:47;102720.69;;;16.93;100.00
23321;BME280;33376;51.306;4.752;2022-08-11T05:16:41;102714.19;;;17.14;100.00
23321;BME280;33376;51.306;4.752;2022-08-11T05:19:28;102714.59;;;17.23;100.00
23321;BME280;33376;51.306;4.752;2022-08-11T05:22:12;102718.53;;;17.33;100.00
23321;BME280;33376;51.306;4.752;2022-08-11T05:25:00;102719.06;;;17.40;100.00
23321;BME280;33376;51.306;4.752;2022-08-11T05:27:49;102717.75;;;17.48;100.00
23321;BME280;33376;51.306;4.752;2022-08-11T05:30:35;102723.56;;;17.57;100.00
23321;BME280;33376;51.306;4.752;2022-08-11T05:33:36;102725.13;;;17.61;100.00
23321;BME280;33376;51.306;4.752;2022-08-11T05:36:30;102711.91;;;17.73;100.00
23321;BME280;33376;51.306;4.752;2022-08-11T05:39:00;102717.91;;;17.94;100.00
23321;BME280;33376;51.306;4.752;2022-08-11T05:41:45;102704.66;;;19.12;100.00
23321;BME280;33376;51.306;4.752;2022-08-11T05:44:31;102657.59;;;20.30;100.00
23321;BME280;33376;51.306;4.752;2022-08-11T05:47:24;102647.16;;;20.11;100.00
23321;BME280;33376;51.306;4.752;2022-08-11T05:50:09;102645.16;;;20.15;100.00
23321;BME280;33376;51.306;4.752;2022-08-11T05:52:53;102636.16;;;20.28;100.00
23321;BME280;33376;51.306;4.752;2022-08-11T05:55:38;102648.97;;;20.11;100.00
23321;BME280;33376;51.306;4.752;2022-08-11T05:58:23;102650.97;;;19.81;100.00
23321;BME280;33376;51.306;4.752;2022-08-11T06:00:49;102656.22;;;19.56;100.00
23321;BME280;33376;51.306;4.752;2022-08-11T06:03:25;102668.50;;;19.32;100.00
23321;BME280;33376;51.306;4.752;2022-08-11T06:05:51;102673.56;;;19.22;100.00
23321;BME280;33376;51.306;4.752;2022-08-11T06:08:18;102693.53;;;19.18;100.00
23321;BME280;33376;51.306;4.752;2022-08-11T06:10:51;102681.22;;;19.14;100.00
23321;BME280;33376;51.306;4.752;2022-08-11T06:13:16;102689.59;;;19.10;100.00
23321;BME280;33376;51.306;4.752;2022-08-11T06:15:48;102697.19;;;19.17;100.00
23321;BME280;33376;51.306;4.752;2022-08-11T06:18:14;102699.00;;;19.17;100.00
23321;BME280;33376;51.306;4.752;2022-08-11T06:20:51;102680.56;;;19.25;100.00
23321;BME280;33376;51.306;4.752;2022-08-11T06:23:16;102683.00;;;19.29;100.00
23321;BME280;33376;51.306;4.752;2022-08-11T06:25:47;102677.47;;;19.46;100.00
23321;BME280;33376;51.306;4.752;2022-08-11T06:28:13;102651.09;;;19.65;100.00
23321;BME280;33376;51.306;4.752;2022-08-11T06:30:40;102643.09;;;19.78;100.00
23321;BME280;33376;51.306;4.752;2022-08-11T06:33:14;102649.31;;;19.92;100.00
23321;BME280;33376;51.306;4.752;2022-08-11T06:38:25;102654.09;;;20.01;100.00
23321;BME280;33376;51.306;4.752;2022-08-11T06:44:12;102641.50;;;20.16;100.00
23321;BME280;33376;51.306;4.752;2022-08-11T06:46:34;102631.75;;;20.27;100.00
23321;BME280;33376;51.306;4.752;2022-08-11T06:49:13;102649.22;;;20.34;100.00
23321;BME280;33376;51.306;4.752;2022-08-11T06:52:01;102615.50;;;21.31;100.00
23321;BME280;33376;51.306;4.752;2022-08-11T06:54:31;102571.16;;;22.42;100.00
23321;BME280;33376;51.306;4.752;2022-08-11T06:56:57;102506.03;;;23.55;100.00
23321;BME280;33376;51.306;4.752;2022-08-11T06:59:42;102477.50;;;24.14;100.00
23321;BME280;33376;51.306;4.752;2022-08-11T07:13:38;102459.47;;;24.24;100.00
23321;BME280;33376;51.306;4.752;2022-08-11T07:16:31;102437.03;;;24.43;100.00
23321;BME280;33376;51.306;4.752;2022-08-11T07:19:05;102429.53;;;24.56;100.00
23321;BME280;33376;51.306;4.752;2022-08-11T07:21:50;102430.53;;;24.55;100.00
23321;BME280;33376;51.306;4.752;2022-08-11T07:24:36;102420.75;;;24.43;100.00
23321;BME280;33376;51.306;4.752;2022-08-11T07:27:21;102450.41;;;24.14;100.00
23321;BME280;33376;51.306;4.752;2022-08-11T07:30:08;102482.16;;;23.60;100.00
23321;BME280;33376;51.306;4.752;2022-08-11T07:32:40;102470.63;;;23.47;100.00
23321;BME280;33376;51.306;4.752;2022-08-11T07:35:11;102451.69;;;23.36;100.00
23321;BME280;33376;51.306;4.752;2022-08-11T07:37:43;102474.97;;;23.17;100.00
23321;BME280;33376;51.306;4.752;2022-08-11T07:40:10;102464.66;;;23.33;100.00
23321;BME280;33376;51.306;4.752;2022-08-11T07:42:35;102467.59;;;23.41;100.00
23321;BME280;33376;51.306;4.752;2022-08-11T07:45:01;102455.09;;;23.49;100.00
23321;BME280;33376;51.306;4.752;2022-08-11T07:47:46;102462.00;;;23.53;100.00
23321;BME280;33376;51.306;4.752;2022-08-11T07:50:30;102491.75;;;23.64;100.00
23321;BME280;33376;51.306;4.752;2022-08-11T07:53:14;102486.44;;;23.74;100.00
23321;BME280;33376;51.306;4.752;2022-08-11T07:55:41;102445.19;;;24.02;100.00
23321;BME280;33376;51.306;4.752;2022-08-11T07:58:06;102453.19;;;24.03;100.00
23321;BME280;33376;51.306;4.752;2022-08-11T08:00:51;102445.97;;;24.34;100.00
23321;BME280;33376;51.306;4.752;2022-08-11T08:03:36;102415.09;;;24.76;100.00
23321;BME280;33376;51.306;4.752;2022-08-11T08:06:21;102417.88;;;25.44;100.00
23321;BME280;33376;51.306;4.752;2022-08-11T08:09:05;102353.31;;;27.04;100.00
23321;BME280;33376;51.306;4.752;2022-08-11T08:11:50;102333.19;;;27.50;100.00
23321;BME280;33376;51.306;4.752;2022-08-11T08:14:34;102284.47;;;28.23;100.00
23321;BME280;33376;51.306;4.752;2022-08-11T08:17:19;102301.56;;;28.25;100.00
23321;BME280;33376;51.306;4.752;2022-08-11T08:20:04;102268.16;;;28.81;100.00
23321;BME280;33376;51.306;4.752;2022-08-11T08:22:32;102233.41;;;29.07;100.00
23321;BME280;33376;51.306;4.752;2022-08-11T08:24:58;102235.09;;;29.48;100.00
23321;BME280;33376;51.306;4.752;2022-08-11T08:27:24;102226.00;;;29.64;100.00
23321;BME280;33376;51.306;4.752;2022-08-11T08:29:50;102193.09;;;30.04;100.00
23321;BME280;33376;51.306;4.752;2022-08-11T08:32:36;102165.41;;;29.99;100.00
23321;BME280;33376;51.306;4.752;2022-08-11T08:35:02;102185.09;;;29.94;100.00
23321;BME280;33376;51.306;4.752;2022-08-11T08:37:28;102154.72;;;29.81;100.00
23321;BME280;33376;51.306;4.752;2022-08-11T08:39:54;102203.47;;;30.25;100.00
23321;BME280;33376;51.306;4.752;2022-08-11T08:42:27;102178.13;;;30.23;100.00
23321;BME280;33376;51.306;4.752;2022-08-11T08:44:57;102179.88;;;29.61;100.00
23321;BME280;33376;51.306;4.752;2022-08-11T08:47:23;102184.81;;;30.20;100.00
23321;BME280;33376;51.306;4.752;2022-08-11T08:49:49;102169.25;;;30.51;100.00
23321;BME280;33376;51.306;4.752;2022-08-11T08:52:17;102177.41;;;30.59;100.00
23321;BME280;33376;51.306;4.752;2022-08-11T08:54:43;102173.22;;;30.10;100.00
23321;BME280;33376;51.306;4.752;2022-08-11T08:57:10;102163.09;;;30.19;100.00
23321;BME280;33376;51.306;4.752;2022-08-11T08:59:40;102150.25;;;30.50;100.00
23321;BME280;33376;51.306;4.752;2022-08-11T09:02:07;102129.19;;;30.28;100.00
23321;BME280;33376;51.306;4.752;2022-08-11T09:04:37;102152.00;;;30.12;100.00
23321;BME280;33376;51.306;4.752;2022-08-11T09:07:07;102157.34;;;30.06;100.00
23321;BME280;33376;51.306;4.752;2022-08-11T09:09:33;102151.09;;;30.28;100.00
23321;BME280;33376;51.306;4.752;2022-08-11T09:11:59;102162.25;;;30.49;100.00
23321;BME280;33376;51.306;4.752;2022-08-11T09:14:36;102186.34;;;30.53;100.00
23321;BME280;33376;51.306;4.752;2022-08-11T09:17:21;102170.78;;;30.23;100.00
23321;BME280;33376;51.306;4.752;2022-08-11T09:19:47;102134.94;;;30.41;100.00
23321;BME280;33376;51.306;4.752;2022-08-11T09:22:17;102167.28;;;29.98;100.00
23321;BME280;33376;51.306;4.752;2022-08-11T09:25:02;102155.22;;;30.24;100.00
23321;BME280;33376;51.306;4.752;2022-08-11T09:27:53;102136.81;;;30.40;100.00
23321;BME280;33376;51.306;4.752;2022-08-11T09:30:20;102151.19;;;30.03;100.00
23321;BME280;33376;51.306;4.752;2022-08-11T09:32:50;102156.50;;;29.97;100.00
23321;BME280;33376;51.306;4.752;2022-08-11T09:35:29;102187.03;;;29.78;100.00
23321;BME280;33376;51.306;4.752;2022-08-11T09:37:54;102158.50;;;29.80;100.00
23321;BME280;33376;51.306;4.752;2022-08-11T09:40:40;102184.47;;;29.60;100.00
23321;BME280;33376;51.306;4.752;2022-08-11T09:43:08;102173.13;;;29.33;100.00
23321;BME280;33376;51.306;4.752;2022-08-11T09:45:53;102200.13;;;29.12;100.00
23321;BME280;33376;51.306;4.752;2022-08-11T09:48:21;102165.41;;;29.04;100.00
23321;BME280;33376;51.306;4.752;2022-08-11T09:50:50;102166.25;;;28.97;100.00
23321;BME280;33376;51.306;4.752;2022-08-11T09:53:16;102187.06;;;28.49;100.00
23321;BME280;33376;51.306;4.752;2022-08-11T09:55:42;102172.91;;;28.70;100.00
23321;BME280;33376;51.306;4.752;2022-08-11T09:58:10;102155.16;;;28.98;100.00
23321;BME280;33376;51.306;4.752;2022-08-11T10:00:38;102158.41;;;28.94;100.00
23321;BME280;33376;51.306;4.752;2022-08-11T10:06:06;102132.47;;;28.66;100.00
23321;BME280;33376;51.306;4.752;2022-08-11T10:08:50;102137.09;;;28.81;100.00
23321;BME280;33376;51.306;4.752;2022-08-11T10:11:18;102136.38;;;28.87;100.00
23321;BME280;33376;51.306;4.752;2022-08-11T10:13:46;102130.06;;;28.95;100.00
23321;BME280;33376;51.306;4.752;2022-08-11T10:16:43;102122.75;;;28.79;100.00
23321;BME280;33376;51.306;4.752;2022-08-11T10:19:09;102141.69;;;28.73;100.00
23321;BME280;33376;51.306;4.752;2022-08-11T10:21:38;102162.53;;;28.74;100.00
23321;BME280;33376;51.306;4.752;2022-08-11T10:24:05;102125.97;;;28.50;100.00
23321;BME280;33376;51.306;4.752;2022-08-11T10:26:49;102138.59;;;28.59;100.00
23321;BME280;33376;51.306;4.752;2022-08-11T10:29:14;102115.22;;;28.89;100.00
23321;BME280;33376;51.306;4.752;2022-08-11T10:31:59;102101.06;;;29.18;100.00
23321;BME280;33376;51.306;4.752;2022-08-11T10:34:44;102142.69;;;29.44;100.00
23321;BME280;33376;51.306;4.752;2022-08-11T10:37:10;102105.50;;;29.73;100.00
23321;BME280;33376;51.306;4.752;2022-08-11T10:39:36;102062.91;;;29.87;100.00
23321;BME280;33376;51.306;4.752;2022-08-11T10:42:02;102097.88;;;29.99;100.00
23321;BME280;33376;51.306;4.752;2022-08-11T10:44:53;102074.75;;;30.02;100.00
23321;BME280;33376;51.306;4.752;2022-08-11T10:47:19;102080.91;;;30.04;100.00
23321;BME280;33376;51.306;4.752;2022-08-11T10:50:10;102065.31;;;30.35;100.00
23321;BME280;33376;51.306;4.752;2022-08-11T10:52:55;102067.31;;;30.19;100.00
23321;BME280;33376;51.306;4.752;2022-08-11T10:55:41;102052.13;;;30.08;100.00
23321;BME280;33376;51.306;4.752;2022-08-11T10:58:25;102054.84;;;30.39;100.00
23321;BME280;33376;51.306;4.752;2022-08-11T11:01:11;102002.16;;;30.22;100.00
23321;BME280;33376;51.306;4.752;2022-08-11T11:03:38;102029.38;;;30.16;100.00
23321;BME280;33376;51.306;4.752;2022-08-11T11:06:08;102043.34;;;29.98;100.00
23321;BME280;33376;51.306;4.752;2022-08-11T11:08:38;102003.25;;;30.05;100.00
23321;BME280;33376;51.306;4.752;2022-08-11T11:11:19;101971.22;;;30.36;100.00
23321;BME280;33376;51.306;4.752;2022-08-11T11:13:46;102027.97;;;30.42;100.00
23321;BME280;33376;51.306;4.752;2022-08-11T11:16:30;102017.69;;;30.81;100.00
23321;BME280;33376;51.306;4.752;2022-08-11T11:19:16;101993.47;;;30.70;100.00
23321;BME280;33376;51.306;4.752;2022-08-11T11:21:44;101971.97;;;30.82;100.00
23321;BME280;33376;51.306;4.752;2022-08-11T11:24:40;102008.38;;;31.05;100.00
23321;BME280;33376;51.306;4.752;2022-08-11T11:37:33;101956.94;;;31.21;100.00
23321;BME280;33376;51.306;4.752;2022-08-11T11:40:00;101946.13;;;30.84;100.00
23321;BME280;33376;51.306;4.752;2022-08-11T11:42:26;101938.81;;;30.77;100.00
23321;BME280;33376;51.306;4.752;2022-08-11T11:44:52;101950.84;;;31.05;100.00
23321;BME280;33376;51.306;4.752;2022-08-11T11:47:18;101935.00;;;31.72;100.00
23321;BME280;33376;51.306;4.752;2022-08-11T11:49:44;101952.00;;;31.46;100.00
23321;BME280;33376;51.306;4.752;2022-08-11T11:52:13;101944.00;;;31.45;100.00
23321;BME280;33376;51.306;4.752;2022-08-11T11:54:44;101882.94;;;31.21;100.00
23321;BME280;33376;51.306;4.752;2022-08-11T11:57:10;101909.13;;;31.60;100.00
23321;BME280;33376;51.306;4.752;2022-08-11T11:59:54;101929.03;;;32.04;100.00
23321;BME280;33376;51.306;4.752;2022-08-11T12:02:39;101909.59;;;32.26;100.00
23321;BME280;33376;51.306;4.752;2022-08-11T12:05:05;101879.63;;;32.04;100.00
23321;BME280;33376;51.306;4.752;2022-08-11T12:07:31;101879.28;;;31.50;100.00
23321;BME280;33376;51.306;4.752;2022-08-11T12:10:17;101902.34;;;31.77;100.00
23321;BME280;33376;51.306;4.752;2022-08-11T12:12:43;101885.63;;;31.72;100.00
23321;BME280;33376;51.306;4.752;2022-08-11T12:15:27;101869.19;;;32.20;100.00
23321;BME280;33376;51.306;4.752;2022-08-11T12:17:52;101866.44;;;31.93;100.00
23321;BME280;33376;51.306;4.752;2022-08-11T12:20:18;101838.22;;;31.99;100.00
23321;BME280;33376;51.306;4.752;2022-08-11T12:22:45;101853.47;;;32.08;100.00
23321;BME280;33376;51.306;4.752;2022-08-11T12:25:29;101873.22;;;31.97;100.00
23321;BME280;33376;51.306;4.752;2022-08-11T12:28:13;101858.41;;;31.70;100.00
23321;BME280;33376;51.306;4.752;2022-08-11T12:30:39;101853.19;;;31.75;100.00
23321;BME280;33376;51.306;4.752;2022-08-11T12:33:05;101859.56;;;31.82;100.00
23321;BME280;33376;51.306;4.752;2022-08-11T12:35:31;101841.50;;;31.88;100.00
23321;BME280;33376;51.306;4.752;2022-08-11T12:37:59;101850.50;;;31.82;100.00
23321;BME280;33376;51.306;4.752;2022-08-11T12:40:26;101817.06;;;31.93;100.00
23321;BME280;33376;51.306;4.752;2022-08-11T12:43:18;101855.63;;;31.85;100.00
23321;BME280;33376;51.306;4.752;2022-08-11T12:46:03;101807.63;;;32.02;100.00
23321;BME280;33376;51.306;4.752;2022-08-11T12:48:31;101807.75;;;31.94;100.00
23321;BME280;33376;51.306;4.752;2022-08-11T12:51:17;101728.50;;;32.46;100.00
23321;BME280;33376;51.306;4.752;2022-08-11T12:54:12;101797.75;;;32.41;100.00
23321;BME280;33376;51.306;4.752;2022-08-11T12:56:40;101813.09;;;32.02;100.00
23321;BME280;33376;51.306;4.752;2022-08-11T12:59:25;101841.28;;;31.68;100.00
23321;BME280;33376;51.306;4.752;2022-08-11T13:02:09;101799.34;;;31.53;100.00
23321;BME280;33376;51.306;4.752;2022-08-11T13:04:55;101797.19;;;31.49;100.00
23321;BME280;33376;51.306;4.752;2022-08-11T13:07:23;101802.22;;;31.66;100.00
23321;BME280;33376;51.306;4.752;2022-08-11T13:09:49;101826.13;;;31.93;100.00
23321;BME280;33376;51.306;4.752;2022-08-11T13:12:14;101806.47;;;31.90;100.00
23321;BME280;33376;51.306;4.752;2022-08-11T13:14:59;101777.53;;;31.87;100.00
23321;BME280;33376;51.306;4.752;2022-08-11T13:17:26;101806.03;;;31.86;100.00
23321;BME280;33376;51.306;4.752;2022-08-11T13:19:53;101771.78;;;31.61;100.00
23321;BME280;33376;51.306;4.752;2022-08-11T13:22:20;101743.78;;;31.93;100.00
23321;BME280;33376;51.306;4.752;2022-08-11T13:24:46;101802.38;;;32.07;100.00
23321;BME280;33376;51.306;4.752;2022-08-11T13:27:12;101738.38;;;31.79;100.00
23321;BME280;33376;51.306;4.752;2022-08-11T13:29:41;101792.69;;;31.83;100.00
23321;BME280;33376;51.306;4.752;2022-08-11T13:32:10;101819.22;;;31.55;100.00
23321;BME280;33376;51.306;4.752;2022-08-11T13:34:36;101777.88;;;31.35;100.00
23321;BME280;33376;51.306;4.752;2022-08-11T13:37:06;101787.09;;;31.49;100.00
23321;BME280;33376;51.306;4.752;2022-08-11T13:39:32;101811.84;;;31.56;100.00
23321;BME280;33376;51.306;4.752;2022-08-11T13:41:59;101766.25;;;31.82;100.00
23321;BME280;33376;51.306;4.752;2022-08-11T13:44:25;101786.41;;;32.23;100.00
23321;BME280;33376;51.306;4.752;2022-08-11T13:46:52;101754.09;;;32.19;100.00
23321;BME280;33376;51.306;4.752;2022-08-11T13:49:18;101727.78;;;31.97;100.00
23321;BME280;33376;51.306;4.752;2022-08-11T13:51:44;101704.09;;;31.89;100.00
23321;BME280;33376;51.306;4.752;2022-08-11T13:54:32;101713.38;;;32.29;100.00
23321;BME280;33376;51.306;4.752;2022-08-11T13:56:56;101741.88;;;31.87;100.00
23321;BME280;33376;51.306;4.752;2022-08-11T13:59:23;101714.19;;;31.61;100.00
23321;BME280;33376;51.306;4.752;2022-08-11T14:01:52;101692.03;;;31.56;100.00
23321;BME280;33376;51.306;4.752;2022-08-11T14:04:24;101725.31;;;31.53;100.00
23321;BME280;33376;51.306;4.752;2022-08-11T14:06:51;101710.78;;;31.53;100.00
23321;BME280;33376;51.306;4.752;2022-08-11T14:09:20;101756.00;;;31.42;100.00
23321;BME280;33376;51.306;4.752;2022-08-11T14:11:46;101718.66;;;31.62;100.00
23321;BME280;33376;51.306;4.752;2022-08-11T14:14:32;101733.25;;;31.69;100.00
23321;BME280;33376;51.306;4.752;2022-08-11T14:17:00;101771.38;;;31.58;100.00
23321;BME280;33376;51.306;4.752;2022-08-11T14:19:27;101754.94;;;32.60;100.00
23321;BME280;33376;51.306;4.752;2022-08-11T14:21:54;101703.69;;;32.26;100.00
23321;BME280;33376;51.306;4.752;2022-08-11T14:24:41;101729.91;;;32.35;100.00
23321;BME280;33376;51.306;4.752;2022-08-11T14:27:08;101693.81;;;32.38;100.00
23321;BME280;33376;51.306;4.752;2022-08-11T14:29:34;101694.06;;;32.09;100.00
23321;BME280;33376;51.306;4.752;2022-08-11T14:32:03;101752.94;;;31.79;100.00
23321;BME280;33376;51.306;4.752;2022-08-11T14:34:29;101805.69;;;31.54;100.00
23321;BME280;33376;51.306;4.752;2022-08-11T14:36:57;101753.59;;;31.81;100.00
23321;BME280;33376;51.306;4.752;2022-08-11T14:39:23;101747.84;;;31.97;100.00
23321;BME280;33376;51.306;4.752;2022-08-11T14:41:51;101690.00;;;31.99;100.00
23321;BME280;33376;51.306;4.752;2022-08-11T14:44:36;101713.38;;;31.61;100.00
23321;BME280;33376;51.306;4.752;2022-08-11T14:47:21;101713.38;;;31.61;100.00
23321;BME280;33376;51.306;4.752;2022-08-11T14:49:46;101698.59;;;31.62;100.00
23321;BME280;33376;51.306;4.752;2022-08-11T14:52:13;101724.09;;;31.83;100.00
23321;BME280;33376;51.306;4.752;2022-08-11T14:54:41;101724.22;;;31.48;100.00
23321;BME280;33376;51.306;4.752;2022-08-11T14:57:25;101737.09;;;31.47;100.00
23321;BME280;33376;51.306;4.752;2022-08-11T14:59:52;101724.22;;;31.48;100.00
23321;BME280;33376;51.306;4.752;2022-08-11T15:02:19;101723.78;;;31.44;100.00
23321;BME280;33376;51.306;4.752;2022-08-11T15:05:04;101710.66;;;31.40;100.00
23321;BME280;33376;51.306;4.752;2022-08-11T15:07:31;101678.47;;;31.27;100.00
23321;BME280;33376;51.306;4.752;2022-08-11T15:10:00;101722.91;;;31.44;100.00
23321;BME280;33376;51.306;4.752;2022-08-11T15:12:26;101728.78;;;31.41;100.00
23321;BME280;33376;51.306;4.752;2022-08-11T15:14:52;101707.03;;;31.60;100.00
23321;BME280;33376;51.306;4.752;2022-08-11T15:17:37;101720.63;;;31.26;100.00
23321;BME280;33376;51.306;4.752;2022-08-11T15:20:07;101706.66;;;31.42;100.00
23321;BME280;33376;51.306;4.752;2022-08-11T15:22:51;101689.97;;;31.37;100.00
23321;BME280;33376;51.306;4.752;2022-08-11T15:25:35;101714.47;;;31.39;100.00
23321;BME280;33376;51.306;4.752;2022-08-11T15:28:02;101688.84;;;31.53;100.00
23321;BME280;33376;51.306;4.752;2022-08-11T15:30:49;101667.03;;;31.72;100.00
23321;BME280;33376;51.306;4.752;2022-08-11T15:33:35;101727.75;;;31.69;100.00
23321;BME280;33376;51.306;4.752;2022-08-11T15:36:21;101687.03;;;31.39;100.00
23321;BME280;33376;51.306;4.752;2022-08-11T15:39:15;101677.34;;;31.43;100.00
23321;BME280;33376;51.306;4.752;2022-08-11T15:41:44;101730.56;;;31.27;100.00
23321;BME280;33376;51.306;4.752;2022-08-11T15:44:32;101747.84;;;31.27;100.00
23321;BME280;33376;51.306;4.752;2022-08-11T15:47:17;101715.25;;;31.18;100.00
23321;BME280;33376;51.306;4.752;2022-08-11T15:49:44;101719.06;;;30.96;100.00
23321;BME280;33376;51.306;4.752;2022-08-11T15:52:15;101670.47;;;31.04;100.00
23321;BME280;33376;51.306;4.752;2022-08-11T15:54:42;101706.69;;;31.21;100.00
23321;BME280;33376;51.306;4.752;2022-08-11T15:57:08;101724.16;;;31.20;100.00
23321;BME280;33376;51.306;4.752;2022-08-11T15:59:54;101709.56;;;31.13;100.00
23321;BME280;33376;51.306;4.752;2022-08-11T16:02:38;101680.69;;;30.96;100.00
23321;BME280;33376;51.306;4.752;2022-08-11T16:05:18;101743.72;;;30.96;100.00
23321;BME280;33376;51.306;4.752;2022-08-11T16:07:44;101710.97;;;30.88;100.00
23321;BME280;33376;51.306;4.752;2022-08-11T16:10:16;101702.19;;;30.92;100.00
23321;BME280;33376;51.306;4.752;2022-08-11T16:13:06;101707.53;;;30.79;100.00
23321;BME280;33376;51.306;4.752;2022-08-11T16:15:37;101732.88;;;30.52;100.00
23321;BME280;33376;51.306;4.752;2022-08-11T16:18:24;101703.56;;;30.53;100.00
23321;BME280;33376;51.306;4.752;2022-08-11T16:21:04;101736.84;;;30.35;100.00
23321;BME280;33376;51.306;4.752;2022-08-11T16:23:31;101726.09;;;30.34;100.00
23321;BME280;33376;51.306;4.752;2022-08-11T16:25:57;101727.59;;;30.36;100.00
23321;BME280;33376;51.306;4.752;2022-08-11T16:28:24;101728.91;;;30.26;100.00
23321;BME280;33376;51.306;4.752;2022-08-11T16:30:51;101683.91;;;30.14;100.00
23321;BME280;33376;51.306;4.752;2022-08-11T16:33:17;101747.78;;;30.06;100.00
23321;BME280;33376;51.306;4.752;2022-08-11T16:35:44;101727.09;;;29.89;100.00
23321;BME280;33376;51.306;4.752;2022-08-11T16:38:28;101714.09;;;29.91;100.00
23321;BME280;33376;51.306;4.752;2022-08-11T16:41:08;101719.94;;;29.88;100.00